createdAt,value
2023-05-09T00:00:42.811Z,102134.56
2023-05-09T00:01:45.294Z,102142.75
2023-05-09T00:02:47.784Z,102138.94
2023-05-09T00:03:51.319Z,102139.78
2023-05-09T00:04:52.905Z,102137.09
2023-05-09T00:05:54.442Z,102146.94
2023-05-09T00:06:55.931Z,102137.84
2023-05-09T00:07:57.499Z,102145.94
2023-05-09T00:08:58.941Z,102150.41
2023-05-09T00:10:00.811Z,102136.88
2023-05-09T00:11:02.259Z,102142.34
2023-05-09T00:12:04.115Z,102134.00
2023-05-09T00:13:06.013Z,102132.22
2023-05-09T00:14:07.845Z,102139.50
2023-05-09T00:15:09.910Z,102136.84
2023-05-09T00:16:11.417Z,102138.56
2023-05-09T00:17:15.600Z,102145.00
2023-05-09T00:18:17.997Z,102141.34
2023-05-09T00:19:19.654Z,102141.41
2023-05-09T00:20:24.259Z,102145.91
2023-05-09T00:21:25.953Z,102137.63
2023-05-09T00:22:28.025Z,102139.50
2023-05-09T00:23:30.364Z,102143.94
2023-05-09T00:24:31.921Z,102141.41
2023-05-09T00:25:33.457Z,102138.63
2023-05-09T00:26:34.935Z,102148.50
2023-05-09T00:27:36.619Z,102142.13
2023-05-09T00:28:38.079Z,102144.66
2023-05-09T00:29:39.546Z,102139.22
2023-05-09T00:30:41.016Z,102143.69
2023-05-09T00:31:42.422Z,102130.91
2023-05-09T00:32:43.927Z,102142.94
2023-05-09T00:33:45.492Z,102144.66
2023-05-09T00:34:46.882Z,102140.16
2023-05-09T00:35:48.277Z,102140.28
2023-05-09T00:36:50.614Z,102145.50
2023-05-09T00:37:52.051Z,102139.13
2023-05-09T00:38:53.474Z,102124.59
2023-05-09T00:39:54.870Z,102146.34
2023-05-09T00:40:56.305Z,102155.28
2023-05-09T00:41:57.716Z,102144.63
2023-05-09T00:43:00.038Z,102141.03
2023-05-09T00:44:01.520Z,102136.50
2023-05-09T00:45:03.266Z,102140.91
2023-05-09T00:46:04.835Z,102140.94
2023-05-09T00:47:09.498Z,102133.75
2023-05-09T00:48:11.200Z,102134.81
2023-05-09T00:49:12.724Z,102138.31
2023-05-09T00:50:14.824Z,102135.56
2023-05-09T00:51:16.884Z,102124.75
2023-05-09T00:52:23.019Z,102130.09
2023-05-09T00:53:25.305Z,102132.00
2023-05-09T00:54:26.931Z,102134.75
2023-05-09T00:55:28.345Z,102124.63
2023-05-09T00:56:29.829Z,102130.06
2023-05-09T00:57:31.231Z,102125.63
2023-05-09T00:58:32.716Z,102123.78
2023-05-09T00:59:34.621Z,102123.78
2023-05-09T01:00:36.627Z,102121.25
2023-05-09T01:01:38.035Z,102123.00
2023-05-09T01:02:44.578Z,102117.66
2023-05-09T01:03:47.300Z,102113.16
2023-05-09T01:04:49.096Z,102115.81
2023-05-09T01:06:09.334Z,102122.97
2023-05-09T01:07:19.304Z,102118.47
2023-05-09T01:08:44.355Z,102124.84
2023-05-09T01:10:13.415Z,102121.25
2023-05-09T01:11:32.120Z,102115.81
2023-05-09T01:12:51.017Z,102115.06
2023-05-09T01:14:11.154Z,102116.97
2023-05-09T01:15:24.083Z,102105.22
2023-05-09T01:16:35.329Z,102113.34
2023-05-09T01:17:52.822Z,102106.97
2023-05-09T01:19:23.009Z,102113.03
2023-05-09T01:20:35.543Z,102115.03
2023-05-09T01:21:38.779Z,102115.84
2023-05-09T01:22:46.690Z,102117.59
2023-05-09T01:24:03.352Z,102111.25
2023-05-09T01:25:32.677Z,102110.31
2023-05-09T01:27:11.764Z,102113.84
2023-05-09T01:28:42.047Z,102111.94
2023-05-09T01:29:47.351Z,102108.34
2023-05-09T01:30:53.458Z,102106.53
2023-05-09T01:31:56.940Z,102108.28
2023-05-09T01:33:01.030Z,102106.56
2023-05-09T01:34:03.282Z,102104.59
2023-05-09T01:35:06.134Z,102102.59
2023-05-09T01:36:13.267Z,102103.44
2023-05-09T01:37:19.658Z,102110.69
2023-05-09T01:38:25.476Z,102112.47
2023-05-09T01:39:28.380Z,102107.94
2023-05-09T01:40:31.936Z,102107.91
2023-05-09T01:41:37.429Z,102111.53
2023-05-09T01:42:45.590Z,102104.25
2023-05-09T01:43:50.459Z,102104.19
2023-05-09T01:44:54.088Z,102088.94
2023-05-09T01:45:57.330Z,102109.75
2023-05-09T01:47:01.144Z,102094.31
2023-05-09T01:48:04.456Z,102089.84
2023-05-09T01:49:08.680Z,102094.47
2023-05-09T01:50:12.048Z,102090.84
2023-05-09T01:51:15.536Z,102097.03
2023-05-09T01:52:19.947Z,102095.13
2023-05-09T01:53:23.095Z,102087.97
2023-05-09T01:54:27.364Z,102092.31
2023-05-09T01:55:32.617Z,102099.63
2023-05-09T01:56:36.259Z,102101.13
2023-05-09T01:57:39.439Z,102105.63
2023-05-09T01:58:42.439Z,102107.53
2023-05-09T01:59:45.964Z,102101.34
2023-05-09T02:00:48.540Z,102108.34
2023-05-09T02:01:50.790Z,102100.03
2023-05-09T02:02:53.310Z,102109.91
2023-05-09T02:03:56.907Z,102114.38
2023-05-09T02:04:59.099Z,102113.47
2023-05-09T02:06:03.302Z,102109.75
2023-05-09T02:07:06.171Z,102111.66
2023-05-09T02:08:08.567Z,102105.31
2023-05-09T02:09:11.285Z,102114.31
2023-05-09T02:10:15.557Z,102112.34
2023-05-09T02:11:17.051Z,102107.75
2023-05-09T02:12:18.477Z,102104.97
2023-05-09T02:13:20.005Z,102108.53
2023-05-09T02:14:21.978Z,102102.13
2023-05-09T02:15:24.444Z,102099.59
2023-05-09T02:16:26.697Z,102099.91
2023-05-09T02:17:30.660Z,102101.56
2023-05-09T02:18:32.681Z,102107.72
2023-05-09T02:19:35.301Z,102105.78
2023-05-09T02:20:36.834Z,102096.72
2023-05-09T02:21:38.385Z,102102.41
2023-05-09T02:22:42.825Z,102101.34
2023-05-09T02:23:44.418Z,102099.41
2023-05-09T02:24:45.970Z,102105.66
2023-05-09T02:25:47.634Z,102103.72
2023-05-09T02:26:49.094Z,102109.97
2023-05-09T02:27:52.027Z,102106.28
2023-05-09T02:28:54.286Z,102110.13
2023-05-09T02:29:58.320Z,102101.69
2023-05-09T02:31:03.441Z,102107.13
2023-05-09T02:32:11.296Z,102100.63
2023-05-09T02:33:13.762Z,102109.63
2023-05-09T02:34:16.560Z,102101.50
2023-05-09T02:35:19.566Z,102111.38
2023-05-09T02:36:22.370Z,102111.31
2023-05-09T02:37:24.647Z,102103.25
2023-05-09T02:38:27.142Z,102110.53
2023-05-09T02:39:28.837Z,102113.16
2023-05-09T02:40:31.034Z,102116.72
2023-05-09T02:41:32.680Z,102114.00
2023-05-09T02:42:34.105Z,102103.94
2023-05-09T02:43:35.614Z,102109.53
2023-05-09T02:44:38.822Z,102114.22
2023-05-09T02:45:40.296Z,102111.47
2023-05-09T02:46:41.725Z,102114.28
2023-05-09T02:47:43.408Z,102105.16
2023-05-09T02:48:44.833Z,102107.88
2023-05-09T02:49:46.376Z,102100.38
2023-05-09T02:50:47.784Z,102105.78
2023-05-09T02:51:49.200Z,102087.66
2023-05-09T02:52:50.792Z,102103.94
2023-05-09T02:53:52.198Z,102101.25
2023-05-09T02:54:53.618Z,102093.19
2023-05-09T02:55:55.017Z,102096.59
2023-05-09T02:56:56.695Z,102101.19
2023-05-09T02:58:09.709Z,102095.13
2023-05-09T02:59:15.001Z,102093.22
2023-05-09T03:00:17.960Z,102096.91
2023-05-09T03:01:19.393Z,102099.75
2023-05-09T03:02:21.008Z,102106.06
2023-05-09T03:03:23.351Z,102096.81
2023-05-09T03:04:25.668Z,102101.50
2023-05-09T03:05:27.203Z,102105.69
2023-05-09T03:06:28.617Z,102097.56
2023-05-09T03:07:30.773Z,102103.13
2023-05-09T03:08:32.172Z,102098.59
2023-05-09T03:09:33.615Z,102100.38
2023-05-09T03:10:35.165Z,102097.69
2023-05-09T03:11:36.801Z,102096.84
2023-05-09T03:12:39.057Z,102086.06
2023-05-09T03:13:40.493Z,102085.88
2023-05-09T03:14:41.944Z,102099.72
2023-05-09T03:15:43.369Z,102093.28
2023-05-09T03:16:44.803Z,102085.16
2023-05-09T03:17:46.587Z,102091.28
2023-05-09T03:18:48.100Z,102096.75
2023-05-09T03:19:49.604Z,102082.16
2023-05-09T03:20:51.100Z,102086.66
2023-05-09T03:21:52.628Z,102088.59
2023-05-09T03:22:54.051Z,102091.03
2023-05-09T03:23:55.793Z,102089.19
2023-05-09T03:24:57.502Z,102085.63
2023-05-09T03:25:58.915Z,102088.25
2023-05-09T03:27:00.420Z,102088.22
2023-05-09T03:28:01.856Z,102090.06
2023-05-09T03:29:03.913Z,102091.78
2023-05-09T03:30:05.912Z,102081.72
2023-05-09T03:31:07.402Z,102087.09
2023-05-09T03:32:08.851Z,102099.81
2023-05-09T03:33:10.296Z,102085.13
2023-05-09T03:34:15.122Z,102092.28
2023-05-09T03:35:16.927Z,102096.66
2023-05-09T03:36:18.610Z,102093.88
2023-05-09T03:37:20.246Z,102087.03
2023-05-09T03:38:24.231Z,102088.22
2023-05-09T03:39:25.741Z,102088.50
2023-05-09T03:40:27.203Z,102093.06
2023-05-09T03:41:28.629Z,102088.69
2023-05-09T03:42:30.043Z,102091.50
2023-05-09T03:43:31.436Z,102079.53
2023-05-09T03:44:32.960Z,102092.16
2023-05-09T03:45:36.060Z,102090.22
2023-05-09T03:46:37.596Z,102083.81
2023-05-09T03:47:39.125Z,102082.03
2023-05-09T03:48:40.581Z,102091.75
2023-05-09T03:49:42.481Z,102095.63
2023-05-09T03:50:44.038Z,102092.91
2023-05-09T03:51:45.461Z,102091.19
2023-05-09T03:52:47.434Z,102083.88
2023-05-09T03:53:48.752Z,102093.13
2023-05-09T03:54:50.174Z,102086.75
2023-05-09T03:55:51.628Z,102083.94
2023-05-09T03:56:53.018Z,102084.94
2023-05-09T03:57:54.967Z,102081.44
2023-05-09T03:58:56.396Z,102086.91
2023-05-09T03:59:57.874Z,102083.06
2023-05-09T04:00:59.335Z,102085.69
2023-05-09T04:02:01.065Z,102091.13
2023-05-09T04:03:02.751Z,102082.09
2023-05-09T04:04:04.384Z,102072.34
2023-05-09T04:05:06.179Z,102087.75
2023-05-09T04:06:08.120Z,102091.28
2023-05-09T04:07:09.558Z,102092.50
2023-05-09T04:08:11.039Z,102087.25
2023-05-09T04:09:12.449Z,102079.06
2023-05-09T04:10:13.864Z,102069.13
2023-05-09T04:11:15.392Z,102078.44
2023-05-09T04:12:16.858Z,102082.38
2023-05-09T04:13:18.320Z,102078.19
2023-05-09T04:14:19.770Z,102081.72
2023-05-09T04:15:21.274Z,102077.97
2023-05-09T04:16:22.724Z,102081.59
2023-05-09T04:17:24.185Z,102086.84
2023-05-09T04:18:25.730Z,102049.72
2023-05-09T04:19:27.191Z,102084.53
2023-05-09T04:20:28.786Z,102081.91
2023-05-09T04:21:31.701Z,102059.94
2023-05-09T04:22:33.110Z,102085.34
2023-05-09T04:23:34.524Z,102086.38
2023-05-09T04:24:35.933Z,102081.91
2023-05-09T04:25:37.409Z,102077.28
2023-05-09T04:26:39.302Z,102089.94
2023-05-09T04:27:42.162Z,102082.91
2023-05-09T04:28:43.806Z,102083.06
2023-05-09T04:29:45.507Z,102091.25
2023-05-09T04:30:46.934Z,102084.97
2023-05-09T04:31:48.515Z,102083.19
2023-05-09T04:32:50.126Z,102076.88
2023-05-09T04:33:52.149Z,102080.59
2023-05-09T04:34:53.529Z,102083.34
2023-05-09T04:35:54.963Z,102075.28
2023-05-09T04:36:56.443Z,102077.13
2023-05-09T04:37:57.867Z,102071.75
2023-05-09T04:38:59.468Z,102071.75
2023-05-09T04:40:01.392Z,102073.72
2023-05-09T04:41:02.824Z,102077.34
2023-05-09T04:42:05.001Z,102077.38
2023-05-09T04:43:06.516Z,102078.25
2023-05-09T04:44:07.925Z,102070.19
2023-05-09T04:45:11.694Z,102080.31
2023-05-09T04:46:13.280Z,102085.00
2023-05-09T04:47:14.749Z,102075.16
2023-05-09T04:48:16.175Z,102075.44
2023-05-09T04:49:17.592Z,102065.75
2023-05-09T04:50:19.023Z,102066.81
2023-05-09T04:51:20.459Z,102062.56
2023-05-09T04:52:22.110Z,102062.88
2023-05-09T04:53:23.630Z,102059.50
2023-05-09T04:54:25.056Z,102052.28
2023-05-09T04:55:26.468Z,102065.06
2023-05-09T04:56:27.851Z,102059.59
2023-05-09T04:57:29.280Z,102067.66
2023-05-09T04:58:31.139Z,102055.88
2023-05-09T04:59:32.691Z,102055.84
2023-05-09T05:00:34.405Z,102066.75
2023-05-09T05:01:35.864Z,102057.63
2023-05-09T05:02:37.338Z,102056.78
2023-05-09T05:03:38.820Z,102055.88
2023-05-09T05:04:40.280Z,102054.13
2023-05-09T05:05:42.418Z,102055.03
2023-05-09T05:06:43.852Z,102050.50
2023-05-09T05:07:45.300Z,102046.94
2023-05-09T05:08:46.717Z,102036.97
2023-05-09T05:09:48.221Z,102043.38
2023-05-09T05:10:49.673Z,102047.91
2023-05-09T05:12:00.761Z,102042.53
2023-05-09T05:13:03.447Z,102044.31
2023-05-09T05:14:04.903Z,102045.25
2023-05-09T05:15:06.673Z,102040.69
2023-05-09T05:16:08.093Z,102040.72
2023-05-09T05:17:09.536Z,102038.00
2023-05-09T05:18:10.983Z,102045.28
2023-05-09T05:19:12.382Z,102041.59
2023-05-09T05:20:14.063Z,102043.41
2023-05-09T05:21:16.260Z,102033.44
2023-05-09T05:22:17.718Z,102037.06
2023-05-09T05:23:19.337Z,102021.63
2023-05-09T05:24:20.802Z,102033.44
2023-05-09T05:25:22.247Z,102034.31
2023-05-09T05:26:23.636Z,102036.16
2023-05-09T05:27:25.024Z,102028.88
2023-05-09T05:28:26.422Z,102028.88
2023-05-09T05:29:27.874Z,102027.97
2023-05-09T05:30:30.368Z,102034.34
2023-05-09T05:31:32.521Z,102027.09
2023-05-09T05:32:33.995Z,102029.81
2023-05-09T05:33:35.456Z,102028.91
2023-05-09T05:34:36.865Z,102027.06
2023-05-09T05:35:38.315Z,102029.81
2023-05-09T05:36:39.711Z,102019.78
2023-05-09T05:37:41.695Z,102027.06
2023-05-09T05:38:42.989Z,102027.06
2023-05-09T05:39:44.480Z,102028.00
2023-05-09T05:40:45.980Z,102021.63
2023-05-09T05:41:47.367Z,102023.41
2023-05-09T05:42:48.863Z,102028.00
2023-05-09T05:43:51.529Z,102022.53
2023-05-09T05:44:54.907Z,102021.59
2023-05-09T05:45:56.371Z,102033.44
2023-05-09T05:46:57.844Z,102032.53
2023-05-09T05:47:59.282Z,102027.06
2023-05-09T05:49:00.839Z,102028.84
2023-05-09T05:50:04.390Z,102025.19
2023-05-09T05:51:06.527Z,102027.94
2023-05-09T05:52:07.833Z,102029.72
2023-05-09T05:53:09.220Z,102020.59
2023-05-09T05:54:11.109Z,102025.16
2023-05-09T05:55:12.520Z,102022.38
2023-05-09T05:56:14.169Z,102020.59
2023-05-09T05:57:15.583Z,102013.34
2023-05-09T05:58:16.982Z,102015.16
2023-05-09T05:59:18.420Z,102017.03
2023-05-09T06:00:20.621Z,102008.78
2023-05-09T06:01:22.059Z,102008.84
2023-05-09T06:02:23.532Z,102008.81
2023-05-09T06:03:25.062Z,102010.69
2023-05-09T06:04:26.847Z,102004.25
2023-05-09T06:05:28.259Z,102005.16
2023-05-09T06:06:29.761Z,102010.59
2023-05-09T06:07:31.399Z,102000.59
2023-05-09T06:08:32.817Z,101995.19
2023-05-09T06:09:34.269Z,101999.69
2023-05-09T06:10:36.031Z,101993.34
2023-05-09T06:11:37.611Z,102002.41
2023-05-09T06:12:39.014Z,101996.06
2023-05-09T06:13:40.393Z,101991.47
2023-05-09T06:14:41.831Z,101994.22
2023-05-09T06:15:43.507Z,101991.50
2023-05-09T06:16:45.028Z,101996.91
2023-05-09T06:17:46.504Z,101985.97
2023-05-09T06:18:48.629Z,101985.06
2023-05-09T06:19:50.111Z,101994.16
2023-05-09T06:20:51.577Z,101986.88
2023-05-09T06:21:53.026Z,101987.78
2023-05-09T06:22:54.488Z,101981.38
2023-05-09T06:24:05.036Z,101985.00
2023-05-09T06:25:10.605Z,101979.50
2023-05-09T06:26:12.347Z,101980.44
2023-05-09T06:27:13.859Z,101984.06
2023-05-09T06:28:15.338Z,101976.81
2023-05-09T06:29:16.777Z,101977.69
2023-05-09T06:30:26.365Z,101968.63
2023-05-09T06:31:28.500Z,101974.09
2023-05-09T06:32:30.018Z,101972.25
2023-05-09T06:33:31.452Z,101971.38
2023-05-09T06:34:32.927Z,101976.78
2023-05-09T06:35:34.322Z,101972.19
2023-05-09T06:36:35.840Z,101969.44
2023-05-09T06:37:37.255Z,101964.94
2023-05-09T06:38:38.634Z,101964.97
2023-05-09T06:39:40.182Z,101959.44
2023-05-09T06:40:41.859Z,101952.13
2023-05-09T06:41:43.318Z,101960.25
2023-05-09T06:42:45.221Z,101950.25
2023-05-09T06:43:46.619Z,101950.22
2023-05-09T06:44:48.070Z,101946.47
2023-05-09T06:45:49.557Z,101949.25
2023-05-09T06:46:50.950Z,101947.50
2023-05-09T06:47:52.511Z,101941.16
2023-05-09T06:48:56.933Z,101953.88
2023-05-09T06:49:58.377Z,101948.31
2023-05-09T06:50:59.802Z,101940.00
2023-05-09T06:52:01.202Z,101948.25
2023-05-09T06:53:02.620Z,101956.53
2023-05-09T06:54:04.132Z,101939.19
2023-05-09T06:55:06.249Z,101939.97
2023-05-09T06:56:07.777Z,101938.09
2023-05-09T06:57:09.258Z,101947.28
2023-05-09T06:58:11.232Z,101942.69
2023-05-09T06:59:13.372Z,101938.13
2023-05-09T07:00:15.609Z,101938.06
2023-05-09T07:01:17.679Z,101935.41
2023-05-09T07:02:19.128Z,101930.00
2023-05-09T07:03:20.592Z,101928.22
2023-05-09T07:04:22.016Z,101925.41
2023-05-09T07:05:23.490Z,101922.66
2023-05-09T07:06:25.237Z,101917.22
2023-05-09T07:07:26.672Z,101924.47
2023-05-09T07:08:28.541Z,101915.38
2023-05-09T07:09:29.954Z,101906.31
2023-05-09T07:10:31.673Z,101908.13
2023-05-09T07:11:37.196Z,101913.56
2023-05-09T07:12:38.733Z,101909.94
2023-05-09T07:13:40.186Z,101908.94
2023-05-09T07:14:41.858Z,101903.41
2023-05-09T07:15:43.455Z,101898.00
2023-05-09T07:16:46.559Z,101901.66
2023-05-09T07:17:48.162Z,101898.91
2023-05-09T07:18:49.571Z,101899.81
2023-05-09T07:19:51.940Z,101908.91
2023-05-09T07:20:53.466Z,101902.53
2023-05-09T07:21:54.903Z,101888.91
2023-05-09T07:22:58.248Z,101898.84
2023-05-09T07:23:59.767Z,101894.25
2023-05-09T07:25:01.212Z,101891.53
2023-05-09T07:26:02.648Z,101887.84
2023-05-09T07:27:04.154Z,101884.13
2023-05-09T07:28:05.874Z,101886.78
2023-05-09T07:29:07.366Z,101891.31
2023-05-09T07:30:09.362Z,101891.34
2023-05-09T07:31:10.795Z,101875.84
2023-05-09T07:32:12.263Z,101888.53
2023-05-09T07:33:13.795Z,101876.59
2023-05-09T07:34:16.715Z,101876.50
2023-05-09T07:35:19.574Z,101875.50
2023-05-09T07:36:21.148Z,101869.00
2023-05-09T07:37:22.639Z,101883.53
2023-05-09T07:38:24.044Z,101877.13
2023-05-09T07:39:25.617Z,101875.25
2023-05-09T07:40:27.104Z,101872.69
2023-05-09T07:41:28.491Z,101866.34
2023-05-09T07:42:32.533Z,101864.59
2023-05-09T07:43:34.028Z,101865.56
2023-05-09T07:44:35.612Z,101859.78
2023-05-09T07:45:37.092Z,101859.72
2023-05-09T07:46:40.788Z,101860.59
2023-05-09T07:47:42.212Z,101860.50
2023-05-09T07:48:43.643Z,101856.75
2023-05-09T07:49:46.525Z,101851.22
2023-05-09T07:50:47.967Z,101847.50
2023-05-09T07:51:49.403Z,101843.84
2023-05-09T07:52:51.824Z,101844.78
2023-05-09T07:53:55.088Z,101839.19
2023-05-09T07:54:56.524Z,101845.63
2023-05-09T07:55:58.629Z,101837.56
2023-05-09T07:57:00.359Z,101838.44
2023-05-09T07:58:01.821Z,101832.97
2023-05-09T07:59:03.360Z,101844.66
2023-05-09T08:00:06.386Z,101841.00
2023-05-09T08:01:07.831Z,101839.13
2023-05-09T08:02:09.383Z,101832.63
2023-05-09T08:03:11.065Z,101839.13
2023-05-09T08:04:12.794Z,101830.97
2023-05-09T08:05:14.542Z,101830.09
2023-05-09T08:06:16.127Z,101830.91
2023-05-09T08:07:17.555Z,101828.97
2023-05-09T08:08:18.977Z,101830.97
2023-05-09T08:09:21.565Z,101834.50
2023-05-09T08:10:23.442Z,101812.53
2023-05-09T08:11:24.997Z,101829.72
2023-05-09T08:12:26.401Z,101818.72
2023-05-09T08:13:28.033Z,101817.81
2023-05-09T08:14:29.823Z,101797.13
2023-05-09T08:15:31.372Z,101822.34
2023-05-09T08:16:32.883Z,101829.50
2023-05-09T08:17:34.462Z,101817.69
2023-05-09T08:18:35.981Z,101818.31
2023-05-09T08:19:37.421Z,101826.59
2023-05-09T08:20:38.965Z,101822.00
2023-05-09T08:21:40.467Z,101815.63
2023-05-09T08:22:41.944Z,101819.41
2023-05-09T08:23:43.337Z,101818.50
2023-05-09T08:24:46.306Z,101808.63
2023-05-09T08:25:47.717Z,101811.19
2023-05-09T08:26:49.150Z,101811.84
2023-05-09T08:27:52.928Z,101810.81
2023-05-09T08:28:54.519Z,101815.34
2023-05-09T08:29:55.934Z,101805.56
2023-05-09T08:30:57.885Z,101808.25
2023-05-09T08:31:59.582Z,101797.94
2023-05-09T08:33:01.119Z,101808.72
2023-05-09T08:34:02.842Z,101799.69
2023-05-09T08:35:04.526Z,101807.84
2023-05-09T08:36:06.408Z,101808.84
2023-05-09T08:37:07.793Z,101805.13
2023-05-09T08:38:09.284Z,101800.69
2023-05-09T08:39:10.983Z,101802.44
2023-05-09T08:40:12.724Z,101810.59
2023-05-09T08:41:14.456Z,101804.06
2023-05-09T08:42:19.899Z,101802.53
2023-05-09T08:43:23.654Z,101801.81
2023-05-09T08:44:25.962Z,101814.75
2023-05-09T08:45:30.482Z,101811.88
2023-05-09T08:46:37.120Z,101805.47
2023-05-09T08:47:38.827Z,101819.06
2023-05-09T08:48:43.039Z,101798.03
2023-05-09T08:49:45.366Z,101799.84
2023-05-09T08:50:47.152Z,101801.53
2023-05-09T08:51:49.054Z,101796.94
2023-05-09T08:52:51.533Z,101800.47
2023-05-09T08:53:53.426Z,101785.84
2023-05-09T08:54:54.774Z,101795.66
2023-05-09T08:55:58.246Z,101785.50
2023-05-09T08:57:01.425Z,101791.09
2023-05-09T08:58:04.095Z,101787.25
2023-05-09T08:59:05.785Z,101787.50
2023-05-09T09:00:11.163Z,101782.59
2023-05-09T09:01:14.100Z,101775.16
2023-05-09T09:02:15.875Z,101771.59
2023-05-09T09:03:17.591Z,101771.41
2023-05-09T09:04:19.141Z,101780.25
2023-05-09T09:05:40.059Z,101768.06
2023-05-09T09:06:43.607Z,101764.44
2023-05-09T09:07:45.984Z,101764.22
2023-05-09T09:08:48.924Z,101761.50
2023-05-09T09:09:52.240Z,101768.81
2023-05-09T09:10:54.241Z,101760.31
2023-05-09T09:11:55.906Z,101764.72
2023-05-09T09:12:59.072Z,101765.47
2023-05-09T09:14:05.570Z,101757.38
2023-05-09T09:15:14.878Z,101763.91
2023-05-09T09:16:21.028Z,101766.44
2023-05-09T09:17:28.747Z,101762.59
2023-05-09T09:18:33.517Z,101751.56
2023-05-09T09:19:36.853Z,101757.28
2023-05-09T09:20:45.005Z,101761.25
2023-05-09T09:21:53.762Z,101758.41
2023-05-09T09:23:03.776Z,101762.97
2023-05-09T09:24:07.704Z,101766.47
2023-05-09T09:25:09.442Z,101755.38
2023-05-09T09:26:10.968Z,101761.81
2023-05-09T09:27:12.378Z,101747.22
2023-05-09T09:28:13.787Z,101752.38
2023-05-09T09:29:16.023Z,101748.88
2023-05-09T09:30:17.940Z,101750.91
2023-05-09T09:31:20.332Z,101760.97
2023-05-09T09:32:33.272Z,101750.78
2023-05-09T09:33:35.877Z,101744.22
2023-05-09T09:34:37.917Z,101739.34
2023-05-09T09:35:40.295Z,101741.81
2023-05-09T09:36:41.803Z,101741.72
2023-05-09T09:37:43.636Z,101753.53
2023-05-09T09:38:44.967Z,101748.72
2023-05-09T09:39:56.639Z,101741.25
2023-05-09T09:40:59.177Z,101728.19
2023-05-09T09:42:11.236Z,101727.16
2023-05-09T09:43:12.634Z,101723.63
2023-05-09T09:44:17.143Z,101731.03
2023-05-09T09:45:20.268Z,101727.31
2023-05-09T09:46:21.867Z,101726.38
2023-05-09T09:47:33.047Z,101718.03
2023-05-09T09:48:35.772Z,101715.88
2023-05-09T09:49:37.239Z,101705.59
2023-05-09T09:50:38.694Z,101713.25
2023-05-09T09:51:41.299Z,101711.16
2023-05-09T09:52:56.435Z,101715.78
2023-05-09T09:53:57.899Z,101710.47
2023-05-09T09:55:00.251Z,101713.22
2023-05-09T09:56:01.746Z,101708.22
2023-05-09T09:57:03.195Z,101708.91
2023-05-09T09:58:16.810Z,101707.78
2023-05-09T09:59:25.028Z,101706.88
2023-05-09T10:00:28.147Z,101706.06
2023-05-09T10:01:29.675Z,101706.13
2023-05-09T10:02:31.330Z,101697.25
2023-05-09T10:03:41.138Z,101703.53
2023-05-09T10:04:43.909Z,101697.69
2023-05-09T10:05:45.352Z,101701.91
2023-05-09T10:07:15.022Z,101701.81
2023-05-09T10:08:17.141Z,101690.03
2023-05-09T10:09:18.906Z,101696.19
2023-05-09T10:10:20.815Z,101693.13
2023-05-09T10:11:22.234Z,101690.16
2023-05-09T10:12:23.781Z,101690.97
2023-05-09T10:13:26.374Z,101684.47
2023-05-09T10:14:28.368Z,101688.97
2023-05-09T10:15:41.481Z,101680.69
2023-05-09T10:16:54.618Z,101683.53
2023-05-09T10:18:01.651Z,101683.59
2023-05-09T10:19:04.033Z,101685.75
2023-05-09T10:20:06.280Z,101683.50
2023-05-09T10:21:12.238Z,101671.25
2023-05-09T10:22:17.814Z,101675.38
2023-05-09T10:23:20.454Z,101675.91
2023-05-09T10:24:34.094Z,101672.53
2023-05-09T10:25:44.492Z,101665.66
2023-05-09T10:26:49.679Z,101665.50
2023-05-09T10:27:55.829Z,101668.41
2023-05-09T10:29:00.143Z,101668.00
2023-05-09T10:30:06.138Z,101666.00
2023-05-09T10:31:14.823Z,101663.59
2023-05-09T10:32:26.917Z,101666.03
2023-05-09T10:33:37.823Z,101668.28
2023-05-09T10:34:42.355Z,101664.56
2023-05-09T10:35:48.015Z,101668.72
2023-05-09T10:36:49.692Z,101656.69
2023-05-09T10:37:55.875Z,101653.63
2023-05-09T10:38:57.614Z,101658.19
2023-05-09T10:40:01.709Z,101647.00
2023-05-09T10:41:03.461Z,101650.41
2023-05-09T10:42:05.906Z,101649.25
2023-05-09T10:43:08.220Z,101646.81
2023-05-09T10:44:10.592Z,101659.19
2023-05-09T10:45:12.807Z,101639.06
2023-05-09T10:46:15.601Z,101640.34
2023-05-09T10:47:17.680Z,101646.94
2023-05-09T10:48:19.176Z,101652.53
2023-05-09T10:49:21.195Z,101650.88
2023-05-09T10:50:23.042Z,101636.88
2023-05-09T10:51:24.877Z,101640.34
2023-05-09T10:52:31.947Z,101630.19
2023-05-09T10:53:45.358Z,101619.13
2023-05-09T10:54:58.471Z,101624.06
2023-05-09T10:56:01.528Z,101627.16
2023-05-09T10:57:03.558Z,101629.09
2023-05-09T10:58:26.755Z,101628.44
2023-05-09T10:59:41.230Z,101627.25
2023-05-09T11:00:42.957Z,101621.28
2023-05-09T11:01:44.475Z,101611.78
2023-05-09T11:03:06.780Z,101619.66
2023-05-09T11:04:14.464Z,101610.59
2023-05-09T11:05:20.191Z,101610.50
2023-05-09T11:06:44.701Z,101612.03
2023-05-09T11:07:46.288Z,101598.50
2023-05-09T11:08:47.726Z,101604.53
2023-05-09T11:10:06.650Z,101611.00
2023-05-09T11:11:22.348Z,101603.19
2023-05-09T11:12:23.952Z,101603.56
2023-05-09T11:13:30.396Z,101606.50
2023-05-09T11:14:44.316Z,101593.78
2023-05-09T11:16:03.940Z,101590.75
2023-05-09T11:17:07.224Z,101591.34
2023-05-09T11:18:11.764Z,101590.34
2023-05-09T11:19:33.719Z,101595.97
2023-05-09T11:20:36.511Z,101586.16
2023-05-09T11:21:38.080Z,101590.91
2023-05-09T11:22:44.113Z,101589.00
2023-05-09T11:23:45.852Z,101580.59
2023-05-09T11:24:51.984Z,101586.25
2023-05-09T11:25:53.709Z,101571.63
2023-05-09T11:26:55.366Z,101563.97
2023-05-09T11:28:02.829Z,101578.94
2023-05-09T11:29:06.588Z,101569.22
2023-05-09T11:30:09.817Z,101566.59
2023-05-09T11:31:16.515Z,101577.47
2023-05-09T11:32:18.736Z,101563.63
2023-05-09T11:33:27.197Z,101557.41
2023-05-09T11:34:29.679Z,101554.19
2023-05-09T11:35:31.326Z,101554.94
2023-05-09T11:36:33.726Z,101547.53
2023-05-09T11:37:46.898Z,101544.75
2023-05-09T11:38:48.546Z,101545.72
2023-05-09T11:40:00.932Z,101538.19
2023-05-09T11:41:02.506Z,101536.59
2023-05-09T11:42:04.769Z,101542.78
2023-05-09T11:43:07.565Z,101530.22
2023-05-09T11:44:20.974Z,101529.59
2023-05-09T11:45:24.555Z,101530.69
2023-05-09T11:46:27.081Z,101533.31
2023-05-09T11:47:29.547Z,101521.50
2023-05-09T11:48:31.100Z,101536.94
2023-05-09T11:49:32.571Z,101534.06
2023-05-09T11:50:34.009Z,101529.72
2023-05-09T11:51:38.722Z,101524.66
2023-05-09T11:52:41.508Z,101523.13
2023-05-09T11:53:46.731Z,101510.25
2023-05-09T11:54:49.516Z,101516.41
2023-05-09T11:55:51.094Z,101508.97
2023-05-09T11:56:52.676Z,101517.38
2023-05-09T11:57:54.785Z,101512.03
2023-05-09T11:58:56.762Z,101507.91
2023-05-09T12:00:00.809Z,101518.28
2023-05-09T12:01:02.654Z,101503.63
2023-05-09T12:02:07.905Z,101495.72
2023-05-09T12:03:09.526Z,101505.16